sensor_id;sensor_type;location;lat;lon;timestamp;P1;durP1;ratioP1;P2;durP2;ratioP2
7841;SDS011;3966;51.052;13.820;2023-06-22T00:00:54;0.00;;;0.00;;
7841;SDS011;3966;51.052;13.820;2023-06-22T00:03:21;0.10;;;0.10;;
7841;SDS011;3966;51.052;13.820;2023-06-22T00:05:51;0.00;;;0.00;;
7841;SDS011;3966;51.052;13.820;2023-06-22T00:08:18;0.00;;;0.00;;
7841;SDS011;3966;51.052;13.820;2023-06-22T00:10:44;0.00;;;0.00;;
7841;SDS011;3966;51.052;13.820;2023-06-22T00:13:11;0.00;;;0.00;;
7841;SDS011;3966;51.052;13.820;2023-06-22T00:15:38;0.00;;;0.00;;
7841;SDS011;3966;51.052;13.820;2023-06-22T00:18:05;0.10;;;0.10;;
7841;SDS011;3966;51.052;13.820;2023-06-22T00:20:32;0.10;;;0.10;;
7841;SDS011;3966;51.052;13.820;2023-06-22T00:23:01;0.08;;;0.08;;
7841;SDS011;3966;51.052;13.820;2023-06-22T00:25:32;0.10;;;0.10;;
7841;SDS011;3966;51.052;13.820;2023-06-22T00:28:07;0.10;;;0.10;;
7841;SDS011;3966;51.052;13.820;2023-06-22T00:30:33;0.10;;;0.10;;
7841;SDS011;3966;51.052;13.820;2023-06-22T00:32:59;0.00;;;0.00;;
7841;SDS011;3966;51.052;13.820;2023-06-22T00:35:25;0.10;;;0.10;;
7841;SDS011;3966;51.052;13.820;2023-06-22T00:37:55;0.10;;;0.10;;
7841;SDS011;3966;51.052;13.820;2023-06-22T00:40:29;0.10;;;0.10;;
7841;SDS011;3966;51.052;13.820;2023-06-22T00:42:56;0.10;;;0.10;;
7841;SDS011;3966;51.052;13.820;2023-06-22T00:45:22;0.00;;;0.00;;
7841;SDS011;3966;51.052;13.820;2023-06-22T00:47:49;0.10;;;0.10;;
7841;SDS011;3966;51.052;13.820;2023-06-22T00:50:20;0.10;;;0.10;;
7841;SDS011;3966;51.052;13.820;2023-06-22T00:52:56;0.00;;;0.00;;
7841;SDS011;3966;51.052;13.820;2023-06-22T00:55:24;0.00;;;0.00;;
7841;SDS011;3966;51.052;13.820;2023-06-22T00:57:51;0.10;;;0.10;;
7841;SDS011;3966;51.052;13.820;2023-06-22T01:00:21;0.10;;;0.10;;
7841;SDS011;3966;51.052;13.820;2023-06-22T01:02:49;0.10;;;0.10;;
7841;SDS011;3966;51.052;13.820;2023-06-22T01:05:19;0.10;;;0.10;;
7841;SDS011;3966;51.052;13.820;2023-06-22T01:07:51;0.00;;;0.00;;
7841;SDS011;3966;51.052;13.820;2023-06-22T01:16:10;0.10;;;0.10;;
7841;SDS011;3966;51.052;13.820;2023-06-22T01:18:43;0.00;;;0.00;;
7841;SDS011;3966;51.052;13.820;2023-06-22T01:21:11;0.10;;;0.10;;
7841;SDS011;3966;51.052;13.820;2023-06-22T01:29:26;0.00;;;0.00;;
7841;SDS011;3966;51.052;13.820;2023-06-22T01:31:54;0.00;;;0.00;;
7841;SDS011;3966;51.052;13.820;2023-06-22T01:34:21;0.10;;;0.10;;
7841;SDS011;3966;51.052;13.820;2023-06-22T01:36:48;0.00;;;0.00;;
7841;SDS011;3966;51.052;13.820;2023-06-22T01:39:15;0.00;;;0.00;;
7841;SDS011;3966;51.052;13.820;2023-06-22T01:41:41;0.10;;;0.10;;
7841;SDS011;3966;51.052;13.820;2023-06-22T01:44:08;0.00;;;0.00;;
7841;SDS011;3966;51.052;13.820;2023-06-22T01:46:34;0.00;;;0.00;;
7841;SDS011;3966;51.052;13.820;2023-06-22T01:49:02;0.00;;;0.00;;
7841;SDS011;3966;51.052;13.820;2023-06-22T01:51:29;0.00;;;0.00;;
7841;SDS011;3966;51.052;13.820;2023-06-22T01:53:55;0.00;;;0.00;;
7841;SDS011;3966;51.052;13.820;2023-06-22T01:56:20;0.00;;;0.00;;
7841;SDS011;3966;51.052;13.820;2023-06-22T01:58:56;0.00;;;0.00;;
7841;SDS011;3966;51.052;13.820;2023-06-22T02:01:31;0.00;;;0.00;;
7841;SDS011;3966;51.052;13.820;2023-06-22T02:04:06;0.00;;;0.00;;
7841;SDS011;3966;51.052;13.820;2023-06-22T02:06:38;0.10;;;0.10;;
7841;SDS011;3966;51.052;13.820;2023-06-22T02:09:11;0.00;;;0.00;;
7841;SDS011;3966;51.052;13.820;2023-06-22T02:11:40;0.00;;;0.00;;
7841;SDS011;3966;51.052;13.820;2023-06-22T02:14:07;0.00;;;0.00;;
7841;SDS011;3966;51.052;13.820;2023-06-22T02:16:33;0.10;;;0.10;;
7841;SDS011;3966;51.052;13.820;2023-06-22T02:19:01;0.10;;;0.10;;
7841;SDS011;3966;51.052;13.820;2023-06-22T02:21:31;0.10;;;0.10;;
7841;SDS011;3966;51.052;13.820;2023-06-22T02:23:57;0.05;;;0.05;;
7841;SDS011;3966;51.052;13.820;2023-06-22T02:26:23;0.00;;;0.00;;
7841;SDS011;3966;51.052;13.820;2023-06-22T02:28:50;0.00;;;0.00;;
7841;SDS011;3966;51.052;13.820;2023-06-22T02:31:15;0.10;;;0.10;;
7841;SDS011;3966;51.052;13.820;2023-06-22T02:33:41;0.00;;;0.00;;
7841;SDS011;3966;51.052;13.820;2023-06-22T02:36:07;0.10;;;0.10;;
7841;SDS011;3966;51.052;13.820;2023-06-22T02:38:34;0.00;;;0.00;;
7841;SDS011;3966;51.052;13.820;2023-06-22T02:41:01;0.10;;;0.10;;
7841;SDS011;3966;51.052;13.820;2023-06-22T02:43:27;0.00;;;0.00;;
7841;SDS011;3966;51.052;13.820;2023-06-22T02:45:53;0.10;;;0.10;;
7841;SDS011;3966;51.052;13.820;2023-06-22T02:48:19;0.00;;;0.00;;
7841;SDS011;3966;51.052;13.820;2023-06-22T02:50:44;0.10;;;0.10;;
7841;SDS011;3966;51.052;13.820;2023-06-22T02:53:10;0.03;;;0.03;;
7841;SDS011;3966;51.052;13.820;2023-06-22T02:55:36;0.00;;;0.00;;
7841;SDS011;3966;51.052;13.820;2023-06-22T02:58:01;0.10;;;0.10;;
7841;SDS011;3966;51.052;13.820;2023-06-22T03:00:30;0.03;;;0.03;;
7841;SDS011;3966;51.052;13.820;2023-06-22T03:02:56;0.00;;;0.00;;
7841;SDS011;3966;51.052;13.820;2023-06-22T03:05:22;0.10;;;0.10;;
7841;SDS011;3966;51.052;13.820;2023-06-22T03:07:49;0.00;;;0.00;;
7841;SDS011;3966;51.052;13.820;2023-06-22T03:10:15;0.00;;;0.00;;
7841;SDS011;3966;51.052;13.820;2023-06-22T03:12:41;0.00;;;0.00;;
7841;SDS011;3966;51.052;13.820;2023-06-22T03:15:08;0.03;;;0.03;;
7841;SDS011;3966;51.052;13.820;2023-06-22T03:17:36;0.10;;;0.10;;
7841;SDS011;3966;51.052;13.820;2023-06-22T03:20:03;0.00;;;0.00;;
7841;SDS011;3966;51.052;13.820;2023-06-22T03:22:39;0.10;;;0.10;;
7841;SDS011;3966;51.052;13.820;2023-06-22T03:25:06;0.00;;;0.00;;
7841;SDS011;3966;51.052;13.820;2023-06-22T03:27:35;0.00;;;0.00;;
7841;SDS011;3966;51.052;13.820;2023-06-22T03:30:04;0.03;;;0.03;;
7841;SDS011;3966;51.052;13.820;2023-06-22T03:32:30;0.10;;;0.10;;
7841;SDS011;3966;51.052;13.820;2023-06-22T03:34:55;0.10;;;0.10;;
7841;SDS011;3966;51.052;13.820;2023-06-22T03:37:23;0.00;;;0.00;;
7841;SDS011;3966;51.052;13.820;2023-06-22T03:39:49;0.00;;;0.00;;
7841;SDS011;3966;51.052;13.820;2023-06-22T03:42:15;0.00;;;0.00;;
7841;SDS011;3966;51.052;13.820;2023-06-22T03:44:41;0.10;;;0.10;;
7841;SDS011;3966;51.052;13.820;2023-06-22T03:47:06;0.10;;;0.10;;
7841;SDS011;3966;51.052;13.820;2023-06-22T03:49:32;0.10;;;0.10;;
7841;SDS011;3966;51.052;13.820;2023-06-22T03:51:59;0.10;;;0.10;;
7841;SDS011;3966;51.052;13.820;2023-06-22T03:54:26;0.00;;;0.00;;
7841;SDS011;3966;51.052;13.820;2023-06-22T03:56:52;0.10;;;0.10;;
7841;SDS011;3966;51.052;13.820;2023-06-22T03:59:18;0.00;;;0.00;;
7841;SDS011;3966;51.052;13.820;2023-06-22T04:01:44;0.03;;;0.03;;
7841;SDS011;3966;51.052;13.820;2023-06-22T04:04:09;0.00;;;0.00;;
7841;SDS011;3966;51.052;13.820;2023-06-22T04:06:35;0.00;;;0.00;;
7841;SDS011;3966;51.052;13.820;2023-06-22T04:09:01;0.10;;;0.10;;
7841;SDS011;3966;51.052;13.820;2023-06-22T04:11:27;0.10;;;0.10;;
7841;SDS011;3966;51.052;13.820;2023-06-22T04:13:53;0.00;;;0.00;;
7841;SDS011;3966;51.052;13.820;2023-06-22T04:16:18;0.10;;;0.10;;
7841;SDS011;3966;51.052;13.820;2023-06-22T04:18:44;0.00;;;0.00;;
7841;SDS011;3966;51.052;13.820;2023-06-22T04:21:10;0.00;;;0.00;;
7841;SDS011;3966;51.052;13.820;2023-06-22T04:23:36;0.00;;;0.00;;
7841;SDS011;3966;51.052;13.820;2023-06-22T04:26:01;0.00;;;0.00;;
7841;SDS011;3966;51.052;13.820;2023-06-22T04:28:27;0.00;;;0.00;;
7841;SDS011;3966;51.052;13.820;2023-06-22T04:30:52;0.10;;;0.10;;
7841;SDS011;3966;51.052;13.820;2023-06-22T04:33:23;0.00;;;0.00;;
7841;SDS011;3966;51.052;13.820;2023-06-22T04:35:48;0.00;;;0.00;;
7841;SDS011;3966;51.052;13.820;2023-06-22T04:38:14;0.10;;;0.10;;
7841;SDS011;3966;51.052;13.820;2023-06-22T04:40:40;0.10;;;0.10;;
7841;SDS011;3966;51.052;13.820;2023-06-22T04:43:05;0.10;;;0.10;;
7841;SDS011;3966;51.052;13.820;2023-06-22T04:45:32;0.00;;;0.00;;
7841;SDS011;3966;51.052;13.820;2023-06-22T04:47:58;0.00;;;0.00;;
7841;SDS011;3966;51.052;13.820;2023-06-22T04:50:24;0.00;;;0.00;;
7841;SDS011;3966;51.052;13.820;2023-06-22T04:52:50;0.00;;;0.00;;
7841;SDS011;3966;51.052;13.820;2023-06-22T04:55:16;0.10;;;0.10;;
7841;SDS011;3966;51.052;13.820;2023-06-22T04:57:46;0.08;;;0.08;;
7841;SDS011;3966;51.052;13.820;2023-06-22T05:00:23;0.10;;;0.10;;
7841;SDS011;3966;51.052;13.820;2023-06-22T05:05:14;0.00;;;0.00;;
7841;SDS011;3966;51.052;13.820;2023-06-22T05:07:44;0.00;;;0.00;;
7841;SDS011;3966;51.052;13.820;2023-06-22T05:10:13;0.00;;;0.00;;
7841;SDS011;3966;51.052;13.820;2023-06-22T05:12:39;0.00;;;0.00;;
7841;SDS011;3966;51.052;13.820;2023-06-22T05:15:09;0.00;;;0.00;;
7841;SDS011;3966;51.052;13.820;2023-06-22T05:17:36;0.00;;;0.00;;
7841;SDS011;3966;51.052;13.820;2023-06-22T05:20:07;0.10;;;0.10;;
7841;SDS011;3966;51.052;13.820;2023-06-22T05:22:37;0.10;;;0.10;;
7841;SDS011;3966;51.052;13.820;2023-06-22T05:25:03;0.00;;;0.00;;
7841;SDS011;3966;51.052;13.820;2023-06-22T05:27:31;0.00;;;0.00;;
7841;SDS011;3966;51.052;13.820;2023-06-22T05:29:57;0.10;;;0.10;;
7841;SDS011;3966;51.052;13.820;2023-06-22T05:32:22;0.00;;;0.00;;
7841;SDS011;3966;51.052;13.820;2023-06-22T05:34:48;0.00;;;0.00;;
7841;SDS011;3966;51.052;13.820;2023-06-22T05:37:13;0.00;;;0.00;;
7841;SDS011;3966;51.052;13.820;2023-06-22T05:39:39;0.03;;;0.03;;
7841;SDS011;3966;51.052;13.820;2023-06-22T05:42:05;0.00;;;0.00;;
7841;SDS011;3966;51.052;13.820;2023-06-22T05:44:33;0.00;;;0.00;;
7841;SDS011;3966;51.052;13.820;2023-06-22T05:46:58;0.00;;;0.00;;
7841;SDS011;3966;51.052;13.820;2023-06-22T05:49:24;0.00;;;0.00;;
7841;SDS011;3966;51.052;13.820;2023-06-22T05:51:54;0.00;;;0.00;;
7841;SDS011;3966;51.052;13.820;2023-06-22T05:54:20;0.00;;;0.00;;
7841;SDS011;3966;51.052;13.820;2023-06-22T05:56:46;0.10;;;0.10;;
7841;SDS011;3966;51.052;13.820;2023-06-22T05:59:11;0.10;;;0.10;;
7841;SDS011;3966;51.052;13.820;2023-06-22T06:01:37;0.10;;;0.10;;
7841;SDS011;3966;51.052;13.820;2023-06-22T06:04:03;0.00;;;0.00;;
7841;SDS011;3966;51.052;13.820;2023-06-22T06:06:29;0.10;;;0.10;;
7841;SDS011;3966;51.052;13.820;2023-06-22T06:08:55;0.00;;;0.00;;
7841;SDS011;3966;51.052;13.820;2023-06-22T06:11:21;0.00;;;0.00;;
7841;SDS011;3966;51.052;13.820;2023-06-22T06:13:47;0.00;;;0.00;;
7841;SDS011;3966;51.052;13.820;2023-06-22T06:16:12;0.00;;;0.00;;
7841;SDS011;3966;51.052;13.820;2023-06-22T06:18:38;0.00;;;0.00;;
7841;SDS011;3966;51.052;13.820;2023-06-22T06:21:04;0.00;;;0.00;;
7841;SDS011;3966;51.052;13.820;2023-06-22T06:23:30;0.00;;;0.00;;
7841;SDS011;3966;51.052;13.820;2023-06-22T06:25:55;0.00;;;0.00;;
7841;SDS011;3966;51.052;13.820;2023-06-22T06:28:21;0.10;;;0.10;;
7841;SDS011;3966;51.052;13.820;2023-06-22T06:30:47;0.10;;;0.10;;
7841;SDS011;3966;51.052;13.820;2023-06-22T06:33:13;0.10;;;0.10;;
7841;SDS011;3966;51.052;13.820;2023-06-22T06:35:38;0.10;;;0.10;;
7841;SDS011;3966;51.052;13.820;2023-06-22T06:38:04;0.10;;;0.10;;
7841;SDS011;3966;51.052;13.820;2023-06-22T06:40:30;0.00;;;0.00;;
7841;SDS011;3966;51.052;13.820;2023-06-22T06:42:55;0.10;;;0.10;;
7841;SDS011;3966;51.052;13.820;2023-06-22T06:45:21;0.00;;;0.00;;
7841;SDS011;3966;51.052;13.820;2023-06-22T06:47:49;0.00;;;0.00;;
7841;SDS011;3966;51.052;13.820;2023-06-22T06:50:15;0.10;;;0.10;;
7841;SDS011;3966;51.052;13.820;2023-06-22T06:52:41;0.10;;;0.10;;
7841;SDS011;3966;51.052;13.820;2023-06-22T06:55:07;0.00;;;0.00;;
7841;SDS011;3966;51.052;13.820;2023-06-22T06:57:36;0.10;;;0.10;;
7841;SDS011;3966;51.052;13.820;2023-06-22T07:00:03;0.10;;;0.10;;
7841;SDS011;3966;51.052;13.820;2023-06-22T07:02:40;0.00;;;0.00;;
7841;SDS011;3966;51.052;13.820;2023-06-22T07:05:08;0.10;;;0.10;;
7841;SDS011;3966;51.052;13.820;2023-06-22T07:07:34;0.10;;;0.10;;
7841;SDS011;3966;51.052;13.820;2023-06-22T07:10:00;0.00;;;0.00;;
7841;SDS011;3966;51.052;13.820;2023-06-22T07:12:26;0.10;;;0.10;;
7841;SDS011;3966;51.052;13.820;2023-06-22T07:14:52;0.10;;;0.10;;
7841;SDS011;3966;51.052;13.820;2023-06-22T07:17:18;0.10;;;0.10;;
7841;SDS011;3966;51.052;13.820;2023-06-22T07:19:43;0.10;;;0.10;;
7841;SDS011;3966;51.052;13.820;2023-06-22T07:22:09;0.10;;;0.10;;
7841;SDS011;3966;51.052;13.820;2023-06-22T07:24:35;0.10;;;0.10;;
7841;SDS011;3966;51.052;13.820;2023-06-22T07:27:00;0.10;;;0.10;;
7841;SDS011;3966;51.052;13.820;2023-06-22T07:29:27;0.10;;;0.10;;
7841;SDS011;3966;51.052;13.820;2023-06-22T07:31:53;0.10;;;0.10;;
7841;SDS011;3966;51.052;13.820;2023-06-22T07:34:19;0.10;;;0.10;;
7841;SDS011;3966;51.052;13.820;2023-06-22T07:36:45;0.10;;;0.10;;
7841;SDS011;3966;51.052;13.820;2023-06-22T07:39:11;0.10;;;0.10;;
7841;SDS011;3966;51.052;13.820;2023-06-22T07:41:38;0.10;;;0.10;;
7841;SDS011;3966;51.052;13.820;2023-06-22T07:44:05;0.10;;;0.10;;
7841;SDS011;3966;51.052;13.820;2023-06-22T07:46:31;0.10;;;0.10;;
7841;SDS011;3966;51.052;13.820;2023-06-22T07:48:57;0.10;;;0.10;;
7841;SDS011;3966;51.052;13.820;2023-06-22T07:51:24;0.10;;;0.10;;
7841;SDS011;3966;51.052;13.820;2023-06-22T07:53:50;0.10;;;0.10;;
7841;SDS011;3966;51.052;13.820;2023-06-22T07:56:16;0.10;;;0.10;;
7841;SDS011;3966;51.052;13.820;2023-06-22T07:58:45;0.10;;;0.10;;
7841;SDS011;3966;51.052;13.820;2023-06-22T08:01:11;0.10;;;0.10;;
7841;SDS011;3966;51.052;13.820;2023-06-22T08:03:37;0.10;;;0.10;;
7841;SDS011;3966;51.052;13.820;2023-06-22T08:06:04;0.10;;;0.10;;
7841;SDS011;3966;51.052;13.820;2023-06-22T08:08:31;0.10;;;0.10;;
7841;SDS011;3966;51.052;13.820;2023-06-22T08:10:57;0.10;;;0.10;;
7841;SDS011;3966;51.052;13.820;2023-06-22T08:13:22;0.10;;;0.10;;
7841;SDS011;3966;51.052;13.820;2023-06-22T08:15:48;0.10;;;0.10;;
7841;SDS011;3966;51.052;13.820;2023-06-22T08:18:14;0.10;;;0.10;;
7841;SDS011;3966;51.052;13.820;2023-06-22T08:20:41;0.10;;;0.10;;
7841;SDS011;3966;51.052;13.820;2023-06-22T08:23:07;0.10;;;0.10;;
7841;SDS011;3966;51.052;13.820;2023-06-22T08:25:33;0.10;;;0.10;;
7841;SDS011;3966;51.052;13.820;2023-06-22T08:27:59;0.10;;;0.10;;
7841;SDS011;3966;51.052;13.820;2023-06-22T08:30:26;0.10;;;0.10;;
7841;SDS011;3966;51.052;13.820;2023-06-22T08:32:51;0.10;;;0.10;;
7841;SDS011;3966;51.052;13.820;2023-06-22T08:35:18;0.10;;;0.10;;
7841;SDS011;3966;51.052;13.820;2023-06-22T08:37:44;0.10;;;0.10;;
7841;SDS011;3966;51.052;13.820;2023-06-22T08:40:17;0.10;;;0.10;;
7841;SDS011;3966;51.052;13.820;2023-06-22T08:42:45;0.10;;;0.10;;
7841;SDS011;3966;51.052;13.820;2023-06-22T08:45:11;0.10;;;0.10;;
7841;SDS011;3966;51.052;13.820;2023-06-22T08:47:37;0.10;;;0.10;;
7841;SDS011;3966;51.052;13.820;2023-06-22T08:50:03;0.10;;;0.10;;
7841;SDS011;3966;51.052;13.820;2023-06-22T08:52:30;0.10;;;0.10;;
7841;SDS011;3966;51.052;13.820;2023-06-22T08:54:56;0.10;;;0.10;;
7841;SDS011;3966;51.052;13.820;2023-06-22T08:57:23;0.10;;;0.10;;
7841;SDS011;3966;51.052;13.820;2023-06-22T08:59:49;0.10;;;0.10;;
7841;SDS011;3966;51.052;13.820;2023-06-22T09:02:17;0.10;;;0.10;;
7841;SDS011;3966;51.052;13.820;2023-06-22T09:04:43;0.10;;;0.10;;
7841;SDS011;3966;51.052;13.820;2023-06-22T09:07:08;0.10;;;0.10;;
7841;SDS011;3966;51.052;13.820;2023-06-22T09:09:34;0.10;;;0.10;;
7841;SDS011;3966;51.052;13.820;2023-06-22T09:12:00;0.10;;;0.10;;
7841;SDS011;3966;51.052;13.820;2023-06-22T09:14:25;0.10;;;0.10;;
7841;SDS011;3966;51.052;13.820;2023-06-22T09:16:51;0.10;;;0.10;;
7841;SDS011;3966;51.052;13.820;2023-06-22T09:19:17;0.10;;;0.10;;
7841;SDS011;3966;51.052;13.820;2023-06-22T09:21:42;0.10;;;0.10;;
7841;SDS011;3966;51.052;13.820;2023-06-22T09:24:08;0.10;;;0.10;;
7841;SDS011;3966;51.052;13.820;2023-06-22T09:26:34;0.10;;;0.10;;
7841;SDS011;3966;51.052;13.820;2023-06-22T09:28:59;0.10;;;0.10;;
7841;SDS011;3966;51.052;13.820;2023-06-22T09:31:25;0.15;;;0.15;;
7841;SDS011;3966;51.052;13.820;2023-06-22T09:33:53;0.10;;;0.10;;
7841;SDS011;3966;51.052;13.820;2023-06-22T09:36:22;0.10;;;0.10;;
7841;SDS011;3966;51.052;13.820;2023-06-22T09:38:48;0.10;;;0.10;;
7841;SDS011;3966;51.052;13.820;2023-06-22T09:41:20;0.10;;;0.10;;
7841;SDS011;3966;51.052;13.820;2023-06-22T09:43:46;0.10;;;0.10;;
7841;SDS011;3966;51.052;13.820;2023-06-22T09:46:13;0.10;;;0.10;;
7841;SDS011;3966;51.052;13.820;2023-06-22T09:48:40;0.10;;;0.10;;
7841;SDS011;3966;51.052;13.820;2023-06-22T09:51:05;0.10;;;0.10;;
7841;SDS011;3966;51.052;13.820;2023-06-22T09:53:31;0.10;;;0.10;;
7841;SDS011;3966;51.052;13.820;2023-06-22T09:55:57;0.10;;;0.10;;
7841;SDS011;3966;51.052;13.820;2023-06-22T09:58:22;0.10;;;0.10;;
7841;SDS011;3966;51.052;13.820;2023-06-22T10:00:48;0.10;;;0.10;;
7841;SDS011;3966;51.052;13.820;2023-06-22T10:03:14;0.10;;;0.10;;
7841;SDS011;3966;51.052;13.820;2023-06-22T10:05:40;0.10;;;0.10;;
7841;SDS011;3966;51.052;13.820;2023-06-22T10:08:05;0.10;;;0.10;;
7841;SDS011;3966;51.052;13.820;2023-06-22T10:10:32;0.10;;;0.10;;
7841;SDS011;3966;51.052;13.820;2023-06-22T10:13:02;0.10;;;0.10;;
7841;SDS011;3966;51.052;13.820;2023-06-22T10:15:34;0.10;;;0.10;;
7841;SDS011;3966;51.052;13.820;2023-06-22T10:17:59;0.10;;;0.10;;
7841;SDS011;3966;51.052;13.820;2023-06-22T10:20:25;0.10;;;0.10;;
7841;SDS011;3966;51.052;13.820;2023-06-22T10:22:51;0.10;;;0.10;;
7841;SDS011;3966;51.052;13.820;2023-06-22T10:25:17;0.10;;;0.10;;
7841;SDS011;3966;51.052;13.820;2023-06-22T10:27:42;0.20;;;0.20;;
7841;SDS011;3966;51.052;13.820;2023-06-22T10:30:09;0.10;;;0.10;;
7841;SDS011;3966;51.052;13.820;2023-06-22T10:32:37;0.10;;;0.10;;
7841;SDS011;3966;51.052;13.820;2023-06-22T10:35:04;0.10;;;0.10;;
7841;SDS011;3966;51.052;13.820;2023-06-22T10:37:30;0.10;;;0.10;;
7841;SDS011;3966;51.052;13.820;2023-06-22T10:39:56;0.13;;;0.13;;
7841;SDS011;3966;51.052;13.820;2023-06-22T10:42:22;0.10;;;0.10;;
7841;SDS011;3966;51.052;13.820;2023-06-22T10:44:48;0.10;;;0.10;;
7841;SDS011;3966;51.052;13.820;2023-06-22T10:47:14;0.10;;;0.10;;
7841;SDS011;3966;51.052;13.820;2023-06-22T10:49:41;0.10;;;0.10;;
7841;SDS011;3966;51.052;13.820;2023-06-22T10:52:07;0.13;;;0.13;;
7841;SDS011;3966;51.052;13.820;2023-06-22T10:54:34;0.10;;;0.10;;
7841;SDS011;3966;51.052;13.820;2023-06-22T10:57:00;0.20;;;0.20;;
7841;SDS011;3966;51.052;13.820;2023-06-22T10:59:26;0.10;;;0.10;;
7841;SDS011;3966;51.052;13.820;2023-06-22T11:01:53;0.10;;;0.10;;
7841;SDS011;3966;51.052;13.820;2023-06-22T11:04:20;0.10;;;0.10;;
7841;SDS011;3966;51.052;13.820;2023-06-22T11:06:46;0.10;;;0.10;;
7841;SDS011;3966;51.052;13.820;2023-06-22T11:09:13;0.10;;;0.10;;
7841;SDS011;3966;51.052;13.820;2023-06-22T11:11:43;0.10;;;0.10;;
7841;SDS011;3966;51.052;13.820;2023-06-22T11:14:09;0.10;;;0.10;;
7841;SDS011;3966;51.052;13.820;2023-06-22T11:16:34;0.10;;;0.10;;
7841;SDS011;3966;51.052;13.820;2023-06-22T11:19:00;0.10;;;0.10;;
7841;SDS011;3966;51.052;13.820;2023-06-22T11:21:26;0.10;;;0.10;;
7841;SDS011;3966;51.052;13.820;2023-06-22T11:23:51;0.17;;;0.17;;
7841;SDS011;3966;51.052;13.820;2023-06-22T11:26:17;0.10;;;0.10;;
7841;SDS011;3966;51.052;13.820;2023-06-22T11:28:43;0.10;;;0.10;;
7841;SDS011;3966;51.052;13.820;2023-06-22T11:31:08;0.10;;;0.10;;
7841;SDS011;3966;51.052;13.820;2023-06-22T11:33:34;0.10;;;0.10;;
7841;SDS011;3966;51.052;13.820;2023-06-22T11:35:59;0.10;;;0.10;;
7841;SDS011;3966;51.052;13.820;2023-06-22T11:38:25;0.10;;;0.10;;
7841;SDS011;3966;51.052;13.820;2023-06-22T11:40:51;0.10;;;0.10;;
7841;SDS011;3966;51.052;13.820;2023-06-22T11:43:16;0.20;;;0.20;;
7841;SDS011;3966;51.052;13.820;2023-06-22T11:45:42;0.20;;;0.20;;
7841;SDS011;3966;51.052;13.820;2023-06-22T11:48:08;0.10;;;0.10;;
7841;SDS011;3966;51.052;13.820;2023-06-22T11:50:33;0.20;;;0.20;;
7841;SDS011;3966;51.052;13.820;2023-06-22T11:53:01;0.20;;;0.20;;
7841;SDS011;3966;51.052;13.820;2023-06-22T11:55:27;0.20;;;0.20;;
7841;SDS011;3966;51.052;13.820;2023-06-22T11:57:54;0.20;;;0.20;;
7841;SDS011;3966;51.052;13.820;2023-06-22T12:00:23;0.20;;;0.20;;
7841;SDS011;3966;51.052;13.820;2023-06-22T12:02:52;0.20;;;0.20;;
7841;SDS011;3966;51.052;13.820;2023-06-22T12:05:19;0.20;;;0.20;;
7841;SDS011;3966;51.052;13.820;2023-06-22T12:07:49;0.20;;;0.20;;
7841;SDS011;3966;51.052;13.820;2023-06-22T12:10:15;0.20;;;0.20;;
7841;SDS011;3966;51.052;13.820;2023-06-22T12:12:41;0.20;;;0.20;;
7841;SDS011;3966;51.052;13.820;2023-06-22T12:15:08;0.20;;;0.20;;
7841;SDS011;3966;51.052;13.820;2023-06-22T12:17:35;0.20;;;0.20;;
7841;SDS011;3966;51.052;13.820;2023-06-22T12:20:00;0.20;;;0.20;;
7841;SDS011;3966;51.052;13.820;2023-06-22T12:22:27;0.20;;;0.20;;
7841;SDS011;3966;51.052;13.820;2023-06-22T12:24:53;0.20;;;0.20;;
7841;SDS011;3966;51.052;13.820;2023-06-22T12:27:18;0.20;;;0.20;;
7841;SDS011;3966;51.052;13.820;2023-06-22T12:29:45;0.20;;;0.20;;
7841;SDS011;3966;51.052;13.820;2023-06-22T12:32:11;0.20;;;0.20;;
7841;SDS011;3966;51.052;13.820;2023-06-22T12:34:41;0.20;;;0.20;;
7841;SDS011;3966;51.052;13.820;2023-06-22T12:37:07;0.20;;;0.20;;
7841;SDS011;3966;51.052;13.820;2023-06-22T12:39:33;0.20;;;0.20;;
7841;SDS011;3966;51.052;13.820;2023-06-22T12:41:59;0.20;;;0.20;;
7841;SDS011;3966;51.052;13.820;2023-06-22T12:44:25;0.20;;;0.20;;
7841;SDS011;3966;51.052;13.820;2023-06-22T12:46:51;0.20;;;0.20;;
7841;SDS011;3966;51.052;13.820;2023-06-22T12:49:16;0.20;;;0.20;;
7841;SDS011;3966;51.052;13.820;2023-06-22T12:51:42;0.20;;;0.20;;
7841;SDS011;3966;51.052;13.820;2023-06-22T12:54:09;0.20;;;0.20;;
7841;SDS011;3966;51.052;13.820;2023-06-22T12:56:35;0.20;;;0.20;;
7841;SDS011;3966;51.052;13.820;2023-06-22T12:59:01;0.20;;;0.20;;
7841;SDS011;3966;51.052;13.820;2023-06-22T13:01:28;0.20;;;0.20;;
7841;SDS011;3966;51.052;13.820;2023-06-22T13:03:55;0.20;;;0.20;;
7841;SDS011;3966;51.052;13.820;2023-06-22T13:06:20;0.20;;;0.20;;
7841;SDS011;3966;51.052;13.820;2023-06-22T13:08:46;0.20;;;0.20;;
7841;SDS011;3966;51.052;13.820;2023-06-22T13:11:12;0.20;;;0.20;;
7841;SDS011;3966;51.052;13.820;2023-06-22T13:13:38;0.20;;;0.20;;
7841;SDS011;3966;51.052;13.820;2023-06-22T13:16:04;0.20;;;0.20;;
7841;SDS011;3966;51.052;13.820;2023-06-22T13:18:30;0.20;;;0.20;;
7841;SDS011;3966;51.052;13.820;2023-06-22T13:20:55;0.20;;;0.20;;
7841;SDS011;3966;51.052;13.820;2023-06-22T13:23:23;0.20;;;0.20;;
7841;SDS011;3966;51.052;13.820;2023-06-22T13:25:48;0.20;;;0.20;;
7841;SDS011;3966;51.052;13.820;2023-06-22T13:28:14;0.20;;;0.20;;
7841;SDS011;3966;51.052;13.820;2023-06-22T13:30:41;0.20;;;0.20;;
7841;SDS011;3966;51.052;13.820;2023-06-22T13:33:07;0.20;;;0.20;;
7841;SDS011;3966;51.052;13.820;2023-06-22T13:35:33;0.20;;;0.20;;
7841;SDS011;3966;51.052;13.820;2023-06-22T13:38:00;0.20;;;0.20;;
7841;SDS011;3966;51.052;13.820;2023-06-22T13:40:26;0.20;;;0.20;;
7841;SDS011;3966;51.052;13.820;2023-06-22T13:42:52;0.20;;;0.20;;
7841;SDS011;3966;51.052;13.820;2023-06-22T13:45:17;0.20;;;0.20;;
7841;SDS011;3966;51.052;13.820;2023-06-22T13:47:44;0.20;;;0.20;;
7841;SDS011;3966;51.052;13.820;2023-06-22T13:50:10;0.20;;;0.20;;
7841;SDS011;3966;51.052;13.820;2023-06-22T13:52:37;0.20;;;0.20;;
7841;SDS011;3966;51.052;13.820;2023-06-22T13:55:04;0.20;;;0.20;;
7841;SDS011;3966;51.052;13.820;2023-06-22T13:57:31;0.20;;;0.20;;
7841;SDS011;3966;51.052;13.820;2023-06-22T13:59:58;0.25;;;0.25;;
7841;SDS011;3966;51.052;13.820;2023-06-22T14:02:25;0.30;;;0.30;;
7841;SDS011;3966;51.052;13.820;2023-06-22T14:04:52;0.20;;;0.20;;
7841;SDS011;3966;51.052;13.820;2023-06-22T14:07:18;0.20;;;0.20;;
7841;SDS011;3966;51.052;13.820;2023-06-22T14:09:47;0.20;;;0.20;;
7841;SDS011;3966;51.052;13.820;2023-06-22T14:12:13;0.25;;;0.25;;
7841;SDS011;3966;51.052;13.820;2023-06-22T14:14:39;0.20;;;0.20;;
7841;SDS011;3966;51.052;13.820;2023-06-22T14:17:04;0.22;;;0.22;;
7841;SDS011;3966;51.052;13.820;2023-06-22T14:19:30;0.20;;;0.20;;
7841;SDS011;3966;51.052;13.820;2023-06-22T14:21:56;0.30;;;0.30;;
7841;SDS011;3966;51.052;13.820;2023-06-22T14:24:22;0.20;;;0.20;;
7841;SDS011;3966;51.052;13.820;2023-06-22T14:26:48;0.30;;;0.30;;
7841;SDS011;3966;51.052;13.820;2023-06-22T14:29:13;0.20;;;0.20;;
7841;SDS011;3966;51.052;13.820;2023-06-22T14:31:39;0.28;;;0.28;;
7841;SDS011;3966;51.052;13.820;2023-06-22T14:34:05;0.20;;;0.20;;
7841;SDS011;3966;51.052;13.820;2023-06-22T14:36:31;0.25;;;0.25;;
7841;SDS011;3966;51.052;13.820;2023-06-22T14:38:57;0.20;;;0.20;;
7841;SDS011;3966;51.052;13.820;2023-06-22T14:41:23;0.25;;;0.25;;
7841;SDS011;3966;51.052;13.820;2023-06-22T14:43:49;0.20;;;0.20;;
7841;SDS011;3966;51.052;13.820;2023-06-22T14:46:15;0.20;;;0.20;;
7841;SDS011;3966;51.052;13.820;2023-06-22T14:48:45;0.20;;;0.20;;
7841;SDS011;3966;51.052;13.820;2023-06-22T14:51:11;0.30;;;0.30;;
7841;SDS011;3966;51.052;13.820;2023-06-22T14:53:37;0.20;;;0.20;;
7841;SDS011;3966;51.052;13.820;2023-06-22T14:56:03;0.20;;;0.20;;
7841;SDS011;3966;51.052;13.820;2023-06-22T14:58:32;0.20;;;0.20;;
7841;SDS011;3966;51.052;13.820;2023-06-22T15:01:01;0.20;;;0.20;;
7841;SDS011;3966;51.052;13.820;2023-06-22T15:03:27;0.30;;;0.30;;
7841;SDS011;3966;51.052;13.820;2023-06-22T15:05:55;0.20;;;0.20;;
7841;SDS011;3966;51.052;13.820;2023-06-22T15:08:21;0.25;;;0.25;;
7841;SDS011;3966;51.052;13.820;2023-06-22T15:10:47;0.20;;;0.20;;